sensor_id;sensor_type;location;lat;lon;timestamp;P1;durP1;ratioP1;P2;durP2;ratioP2
20982;SDS011;10650;51.528;6.748;2023-04-24T00:01:31;3.40;;;2.33;;
20982;SDS011;10650;51.528;6.748;2023-04-24T00:04:00;2.35;;;1.90;;
20982;SDS011;10650;51.528;6.748;2023-04-24T00:06:31;4.07;;;2.00;;
20982;SDS011;10650;51.528;6.748;2023-04-24T00:09:00;2.83;;;1.70;;
20982;SDS011;10650;51.528;6.748;2023-04-24T00:11:28;3.53;;;1.85;;
20982;SDS011;10650;51.528;6.748;2023-04-24T00:13:56;3.05;;;1.80;;
20982;SDS011;10650;51.528;6.748;2023-04-24T00:16:24;3.72;;;2.00;;
20982;SDS011;10650;51.528;6.748;2023-04-24T00:18:52;2.90;;;2.08;;
20982;SDS011;10650;51.528;6.748;2023-04-24T00:21:20;3.15;;;1.83;;
20982;SDS011;10650;51.528;6.748;2023-04-24T00:23:53;3.67;;;1.92;;
20982;SDS011;10650;51.528;6.748;2023-04-24T00:26:21;3.05;;;2.20;;
20982;SDS011;10650;51.528;6.748;2023-04-24T00:28:49;3.75;;;2.67;;
20982;SDS011;10650;51.528;6.748;2023-04-24T00:31:17;3.13;;;2.38;;
20982;SDS011;10650;51.528;6.748;2023-04-24T00:33:45;4.78;;;2.50;;
20982;SDS011;10650;51.528;6.748;2023-04-24T00:36:13;5.38;;;2.70;;
20982;SDS011;10650;51.528;6.748;2023-04-24T00:38:41;3.15;;;2.50;;
20982;SDS011;10650;51.528;6.748;2023-04-24T00:41:10;3.40;;;2.40;;
20982;SDS011;10650;51.528;6.748;2023-04-24T00:43:38;6.97;;;2.72;;
20982;SDS011;10650;51.528;6.748;2023-04-24T00:46:06;4.38;;;2.70;;
20982;SDS011;10650;51.528;6.748;2023-04-24T00:48:34;4.65;;;2.95;;
20982;SDS011;10650;51.528;6.748;2023-04-24T00:51:02;4.43;;;3.15;;
20982;SDS011;10650;51.528;6.748;2023-04-24T00:53:30;5.18;;;3.30;;
20982;SDS011;10650;51.528;6.748;2023-04-24T00:55:59;3.40;;;3.10;;
20982;SDS011;10650;51.528;6.748;2023-04-24T00:58:28;4.75;;;3.72;;
20982;SDS011;10650;51.528;6.748;2023-04-24T01:00:57;4.25;;;3.28;;
20982;SDS011;10650;51.528;6.748;2023-04-24T01:03:28;6.65;;;3.83;;
20982;SDS011;10650;51.528;6.748;2023-04-24T01:05:58;5.63;;;3.70;;
20982;SDS011;10650;51.528;6.748;2023-04-24T01:08:26;4.68;;;3.95;;
20982;SDS011;10650;51.528;6.748;2023-04-24T01:10:55;4.90;;;4.20;;
20982;SDS011;10650;51.528;6.748;2023-04-24T01:13:24;5.13;;;4.20;;
20982;SDS011;10650;51.528;6.748;2023-04-24T01:15:53;5.65;;;4.50;;
20982;SDS011;10650;51.528;6.748;2023-04-24T01:18:21;7.45;;;4.50;;
20982;SDS011;10650;51.528;6.748;2023-04-24T01:20:49;6.43;;;4.85;;
20982;SDS011;10650;51.528;6.748;2023-04-24T01:23:21;8.30;;;5.03;;
20982;SDS011;10650;51.528;6.748;2023-04-24T01:25:49;6.95;;;5.05;;
20982;SDS011;10650;51.528;6.748;2023-04-24T01:28:17;6.68;;;4.68;;
20982;SDS011;10650;51.528;6.748;2023-04-24T01:30:45;8.40;;;5.38;;
20982;SDS011;10650;51.528;6.748;2023-04-24T01:33:13;5.53;;;5.00;;
20982;SDS011;10650;51.528;6.748;2023-04-24T01:35:41;6.45;;;5.22;;
20982;SDS011;10650;51.528;6.748;2023-04-24T01:38:09;4.90;;;4.43;;
20982;SDS011;10650;51.528;6.748;2023-04-24T01:40:39;8.90;;;6.07;;
20982;SDS011;10650;51.528;6.748;2023-04-24T01:43:06;10.48;;;6.25;;
20982;SDS011;10650;51.528;6.748;2023-04-24T01:45:34;7.75;;;6.50;;
20982;SDS011;10650;51.528;6.748;2023-04-24T01:48:02;9.80;;;7.15;;
20982;SDS011;10650;51.528;6.748;2023-04-24T01:50:30;11.30;;;7.30;;
20982;SDS011;10650;51.528;6.748;2023-04-24T01:52:58;9.38;;;6.32;;
20982;SDS011;10650;51.528;6.748;2023-04-24T01:55:26;9.77;;;6.88;;
20982;SDS011;10650;51.528;6.748;2023-04-24T01:57:56;11.27;;;7.30;;
20982;SDS011;10650;51.528;6.748;2023-04-24T02:00:24;9.57;;;7.30;;
20982;SDS011;10650;51.528;6.748;2023-04-24T02:02:51;10.18;;;7.28;;
20982;SDS011;10650;51.528;6.748;2023-04-24T02:05:20;10.15;;;7.32;;
20982;SDS011;10650;51.528;6.748;2023-04-24T02:07:47;11.55;;;7.30;;
20982;SDS011;10650;51.528;6.748;2023-04-24T02:10:15;9.10;;;7.78;;
20982;SDS011;10650;51.528;6.748;2023-04-24T02:12:43;12.73;;;8.82;;
20982;SDS011;10650;51.528;6.748;2023-04-24T02:15:12;12.27;;;8.73;;
20982;SDS011;10650;51.528;6.748;2023-04-24T02:17:41;13.80;;;9.50;;
20982;SDS011;10650;51.528;6.748;2023-04-24T02:20:09;12.55;;;8.55;;
20982;SDS011;10650;51.528;6.748;2023-04-24T02:22:37;14.63;;;10.38;;
20982;SDS011;10650;51.528;6.748;2023-04-24T02:25:05;14.02;;;9.73;;
20982;SDS011;10650;51.528;6.748;2023-04-24T02:27:34;13.00;;;9.25;;
20982;SDS011;10650;51.528;6.748;2023-04-24T02:30:02;13.75;;;9.15;;
20982;SDS011;10650;51.528;6.748;2023-04-24T02:32:31;12.90;;;9.48;;
20982;SDS011;10650;51.528;6.748;2023-04-24T02:35:00;14.23;;;9.35;;
20982;SDS011;10650;51.528;6.748;2023-04-24T02:37:28;13.40;;;9.70;;
20982;SDS011;10650;51.528;6.748;2023-04-24T02:39:55;12.07;;;9.30;;
20982;SDS011;10650;51.528;6.748;2023-04-24T02:42:23;16.33;;;10.90;;
20982;SDS011;10650;51.528;6.748;2023-04-24T02:44:51;13.90;;;10.52;;
20982;SDS011;10650;51.528;6.748;2023-04-24T02:47:19;12.77;;;10.35;;
20982;SDS011;10650;51.528;6.748;2023-04-24T02:49:48;15.90;;;10.85;;
20982;SDS011;10650;51.528;6.748;2023-04-24T02:52:16;16.05;;;11.35;;
20982;SDS011;10650;51.528;6.748;2023-04-24T02:54:44;16.50;;;12.07;;
20982;SDS011;10650;51.528;6.748;2023-04-24T02:57:11;17.00;;;11.77;;
20982;SDS011;10650;51.528;6.748;2023-04-24T02:59:39;18.23;;;12.38;;
20982;SDS011;10650;51.528;6.748;2023-04-24T03:02:09;16.90;;;11.57;;
20982;SDS011;10650;51.528;6.748;2023-04-24T03:04:37;16.83;;;12.05;;
20982;SDS011;10650;51.528;6.748;2023-04-24T03:07:07;16.55;;;12.35;;
20982;SDS011;10650;51.528;6.748;2023-04-24T03:09:35;20.25;;;13.43;;
20982;SDS011;10650;51.528;6.748;2023-04-24T03:12:03;19.80;;;12.80;;
20982;SDS011;10650;51.528;6.748;2023-04-24T03:14:31;38.20;;;25.58;;
20982;SDS011;10650;51.528;6.748;2023-04-24T03:16:59;18.52;;;11.55;;
20982;SDS011;10650;51.528;6.748;2023-04-24T03:19:27;18.67;;;13.23;;
20982;SDS011;10650;51.528;6.748;2023-04-24T03:21:54;17.58;;;12.40;;
20982;SDS011;10650;51.528;6.748;2023-04-24T03:24:24;20.70;;;14.07;;
20982;SDS011;10650;51.528;6.748;2023-04-24T03:26:54;18.20;;;13.40;;
20982;SDS011;10650;51.528;6.748;2023-04-24T03:29:23;17.38;;;12.93;;
20982;SDS011;10650;51.528;6.748;2023-04-24T03:31:50;19.80;;;13.88;;
20982;SDS011;10650;51.528;6.748;2023-04-24T03:34:18;19.42;;;14.55;;
20982;SDS011;10650;51.528;6.748;2023-04-24T03:36:46;18.25;;;14.20;;
20982;SDS011;10650;51.528;6.748;2023-04-24T03:39:14;18.88;;;13.65;;
20982;SDS011;10650;51.528;6.748;2023-04-24T03:41:43;20.42;;;14.50;;
20982;SDS011;10650;51.528;6.748;2023-04-24T03:44:12;21.08;;;14.02;;
20982;SDS011;10650;51.528;6.748;2023-04-24T03:46:39;16.90;;;12.82;;
20982;SDS011;10650;51.528;6.748;2023-04-24T03:49:07;19.27;;;14.43;;
20982;SDS011;10650;51.528;6.748;2023-04-24T03:51:35;19.33;;;13.25;;
20982;SDS011;10650;51.528;6.748;2023-04-24T03:54:03;18.10;;;13.20;;
20982;SDS011;10650;51.528;6.748;2023-04-24T03:56:31;18.92;;;13.88;;
20982;SDS011;10650;51.528;6.748;2023-04-24T03:59:00;19.23;;;14.32;;
20982;SDS011;10650;51.528;6.748;2023-04-24T04:01:28;18.13;;;14.25;;
20982;SDS011;10650;51.528;6.748;2023-04-24T04:03:57;19.70;;;14.48;;
20982;SDS011;10650;51.528;6.748;2023-04-24T04:06:25;19.65;;;13.68;;
20982;SDS011;10650;51.528;6.748;2023-04-24T04:08:53;17.65;;;13.35;;
20982;SDS011;10650;51.528;6.748;2023-04-24T04:11:21;18.27;;;12.88;;
20982;SDS011;10650;51.528;6.748;2023-04-24T04:13:48;18.13;;;12.63;;
20982;SDS011;10650;51.528;6.748;2023-04-24T04:16:17;20.00;;;12.75;;
20982;SDS011;10650;51.528;6.748;2023-04-24T04:18:45;17.17;;;13.63;;
20982;SDS011;10650;51.528;6.748;2023-04-24T04:21:13;19.75;;;13.85;;
20982;SDS011;10650;51.528;6.748;2023-04-24T04:23:41;18.23;;;14.18;;
20982;SDS011;10650;51.528;6.748;2023-04-24T04:26:09;20.33;;;13.65;;
20982;SDS011;10650;51.528;6.748;2023-04-24T04:28:36;20.35;;;14.20;;
20982;SDS011;10650;51.528;6.748;2023-04-24T04:31:05;19.20;;;14.07;;
20982;SDS011;10650;51.528;6.748;2023-04-24T04:33:35;19.15;;;14.10;;
20982;SDS011;10650;51.528;6.748;2023-04-24T04:36:07;21.25;;;13.93;;
20982;SDS011;10650;51.528;6.748;2023-04-24T04:38:35;22.42;;;14.52;;
20982;SDS011;10650;51.528;6.748;2023-04-24T04:41:03;19.33;;;14.07;;
20982;SDS011;10650;51.528;6.748;2023-04-24T04:43:31;18.77;;;13.95;;
20982;SDS011;10650;51.528;6.748;2023-04-24T04:46:00;18.38;;;13.57;;
20982;SDS011;10650;51.528;6.748;2023-04-24T04:48:29;19.08;;;13.68;;
20982;SDS011;10650;51.528;6.748;2023-04-24T04:50:59;19.27;;;13.55;;
20982;SDS011;10650;51.528;6.748;2023-04-24T04:53:27;15.48;;;12.18;;
20982;SDS011;10650;51.528;6.748;2023-04-24T04:55:54;15.38;;;11.57;;
20982;SDS011;10650;51.528;6.748;2023-04-24T04:58:22;16.30;;;11.25;;
20982;SDS011;10650;51.528;6.748;2023-04-24T05:00:50;13.52;;;11.40;;
20982;SDS011;10650;51.528;6.748;2023-04-24T05:03:18;15.43;;;11.52;;
20982;SDS011;10650;51.528;6.748;2023-04-24T05:05:47;13.13;;;10.63;;
20982;SDS011;10650;51.528;6.748;2023-04-24T05:08:16;15.77;;;12.48;;
20982;SDS011;10650;51.528;6.748;2023-04-24T05:10:52;16.50;;;11.27;;
20982;SDS011;10650;51.528;6.748;2023-04-24T05:13:20;14.82;;;10.30;;
20982;SDS011;10650;51.528;6.748;2023-04-24T05:16:04;14.00;;;9.38;;
20982;SDS011;10650;51.528;6.748;2023-04-24T05:18:32;12.23;;;9.65;;
20982;SDS011;10650;51.528;6.748;2023-04-24T05:20:59;14.27;;;9.93;;
20982;SDS011;10650;51.528;6.748;2023-04-24T05:23:29;11.52;;;9.00;;
20982;SDS011;10650;51.528;6.748;2023-04-24T05:25:56;13.10;;;8.98;;
20982;SDS011;10650;51.528;6.748;2023-04-24T05:28:24;12.25;;;8.57;;
20982;SDS011;10650;51.528;6.748;2023-04-24T05:30:54;11.32;;;8.70;;
20982;SDS011;10650;51.528;6.748;2023-04-24T05:33:23;11.35;;;8.98;;
20982;SDS011;10650;51.528;6.748;2023-04-24T05:35:50;12.55;;;9.25;;
20982;SDS011;10650;51.528;6.748;2023-04-24T05:38:18;11.57;;;9.15;;
20982;SDS011;10650;51.528;6.748;2023-04-24T05:40:47;12.15;;;9.73;;
20982;SDS011;10650;51.528;6.748;2023-04-24T05:43:15;11.77;;;9.60;;
20982;SDS011;10650;51.528;6.748;2023-04-24T05:45:43;14.07;;;10.07;;
20982;SDS011;10650;51.528;6.748;2023-04-24T05:48:11;15.63;;;10.88;;
20982;SDS011;10650;51.528;6.748;2023-04-24T05:50:39;13.77;;;9.75;;
20982;SDS011;10650;51.528;6.748;2023-04-24T05:53:07;14.90;;;11.10;;
20982;SDS011;10650;51.528;6.748;2023-04-24T05:55:36;13.82;;;10.60;;
20982;SDS011;10650;51.528;6.748;2023-04-24T05:58:06;16.70;;;11.15;;
20982;SDS011;10650;51.528;6.748;2023-04-24T06:00:34;16.45;;;11.80;;
20982;SDS011;10650;51.528;6.748;2023-04-24T06:03:02;15.82;;;11.82;;
20982;SDS011;10650;51.528;6.748;2023-04-24T06:05:30;16.98;;;13.10;;
20982;SDS011;10650;51.528;6.748;2023-04-24T06:07:58;18.48;;;11.93;;
20982;SDS011;10650;51.528;6.748;2023-04-24T06:10:26;15.73;;;12.18;;
20982;SDS011;10650;51.528;6.748;2023-04-24T06:12:54;16.92;;;13.80;;
20982;SDS011;10650;51.528;6.748;2023-04-24T06:15:29;19.80;;;12.80;;
20982;SDS011;10650;51.528;6.748;2023-04-24T06:17:57;15.73;;;12.90;;
20982;SDS011;10650;51.528;6.748;2023-04-24T06:20:25;20.25;;;15.68;;
20982;SDS011;10650;51.528;6.748;2023-04-24T06:22:54;21.08;;;15.43;;
20982;SDS011;10650;51.528;6.748;2023-04-24T06:25:22;16.90;;;14.02;;
20982;SDS011;10650;51.528;6.748;2023-04-24T06:27:52;18.02;;;13.88;;
20982;SDS011;10650;51.528;6.748;2023-04-24T06:30:19;16.25;;;14.35;;
20982;SDS011;10650;51.528;6.748;2023-04-24T06:32:49;17.58;;;12.85;;
20982;SDS011;10650;51.528;6.748;2023-04-24T06:35:16;16.52;;;12.57;;
20982;SDS011;10650;51.528;6.748;2023-04-24T06:37:44;14.52;;;11.52;;
20982;SDS011;10650;51.528;6.748;2023-04-24T06:40:13;17.17;;;13.00;;
20982;SDS011;10650;51.528;6.748;2023-04-24T06:42:40;14.50;;;10.63;;
20982;SDS011;10650;51.528;6.748;2023-04-24T06:45:09;12.05;;;10.27;;
20982;SDS011;10650;51.528;6.748;2023-04-24T06:47:37;14.75;;;10.27;;
20982;SDS011;10650;51.528;6.748;2023-04-24T06:50:07;11.95;;;9.52;;
20982;SDS011;10650;51.528;6.748;2023-04-24T06:52:35;12.95;;;10.00;;
20982;SDS011;10650;51.528;6.748;2023-04-24T06:55:03;9.43;;;8.43;;
20982;SDS011;10650;51.528;6.748;2023-04-24T06:57:32;10.80;;;9.63;;
20982;SDS011;10650;51.528;6.748;2023-04-24T06:59:59;9.73;;;8.32;;
20982;SDS011;10650;51.528;6.748;2023-04-24T07:02:27;10.45;;;7.18;;
20982;SDS011;10650;51.528;6.748;2023-04-24T07:04:55;8.55;;;6.43;;
20982;SDS011;10650;51.528;6.748;2023-04-24T07:07:24;8.88;;;6.60;;
20982;SDS011;10650;51.528;6.748;2023-04-24T07:09:52;7.45;;;5.18;;
20982;SDS011;10650;51.528;6.748;2023-04-24T07:12:22;6.60;;;5.10;;
20982;SDS011;10650;51.528;6.748;2023-04-24T07:14:50;7.05;;;4.93;;
20982;SDS011;10650;51.528;6.748;2023-04-24T07:17:18;5.03;;;4.50;;
20982;SDS011;10650;51.528;6.748;2023-04-24T07:19:45;5.13;;;4.68;;
20982;SDS011;10650;51.528;6.748;2023-04-24T07:22:13;7.18;;;4.88;;
20982;SDS011;10650;51.528;6.748;2023-04-24T07:24:44;4.20;;;3.83;;
20982;SDS011;10650;51.528;6.748;2023-04-24T07:27:12;3.90;;;3.50;;
20982;SDS011;10650;51.528;6.748;2023-04-24T07:29:41;3.35;;;3.00;;
20982;SDS011;10650;51.528;6.748;2023-04-24T07:32:09;4.07;;;3.40;;
20982;SDS011;10650;51.528;6.748;2023-04-24T07:34:37;2.70;;;2.50;;
20982;SDS011;10650;51.528;6.748;2023-04-24T07:37:05;3.20;;;2.20;;
20982;SDS011;10650;51.528;6.748;2023-04-24T07:39:33;2.78;;;2.42;;
20982;SDS011;10650;51.528;6.748;2023-04-24T07:42:02;2.28;;;2.08;;
20982;SDS011;10650;51.528;6.748;2023-04-24T07:44:30;3.00;;;2.28;;
20982;SDS011;10650;51.528;6.748;2023-04-24T07:46:58;3.40;;;2.10;;
20982;SDS011;10650;51.528;6.748;2023-04-24T07:49:26;3.83;;;2.53;;
20982;SDS011;10650;51.528;6.748;2023-04-24T07:51:54;3.03;;;2.00;;
20982;SDS011;10650;51.528;6.748;2023-04-24T07:54:21;4.05;;;2.10;;
20982;SDS011;10650;51.528;6.748;2023-04-24T07:56:49;2.30;;;2.10;;
20982;SDS011;10650;51.528;6.748;2023-04-24T07:59:18;4.22;;;2.58;;
20982;SDS011;10650;51.528;6.748;2023-04-24T08:01:46;6.97;;;4.97;;
20982;SDS011;10650;51.528;6.748;2023-04-24T08:04:14;5.63;;;4.22;;
20982;SDS011;10650;51.528;6.748;2023-04-24T08:06:42;4.57;;;2.30;;
20982;SDS011;10650;51.528;6.748;2023-04-24T08:09:10;2.42;;;2.22;;
20982;SDS011;10650;51.528;6.748;2023-04-24T08:11:38;2.85;;;2.45;;
20982;SDS011;10650;51.528;6.748;2023-04-24T08:14:05;2.90;;;2.67;;
20982;SDS011;10650;51.528;6.748;2023-04-24T08:16:35;2.60;;;2.40;;
20982;SDS011;10650;51.528;6.748;2023-04-24T08:19:03;3.72;;;2.38;;
20982;SDS011;10650;51.528;6.748;2023-04-24T08:21:31;2.75;;;2.30;;
20982;SDS011;10650;51.528;6.748;2023-04-24T08:23:59;3.35;;;2.47;;
20982;SDS011;10650;51.528;6.748;2023-04-24T08:26:26;2.30;;;2.10;;
20982;SDS011;10650;51.528;6.748;2023-04-24T08:28:54;3.00;;;2.25;;
20982;SDS011;10650;51.528;6.748;2023-04-24T08:31:22;2.17;;;1.98;;
20982;SDS011;10650;51.528;6.748;2023-04-24T08:33:52;2.28;;;1.95;;
20982;SDS011;10650;51.528;6.748;2023-04-24T08:36:20;2.20;;;2.00;;
20982;SDS011;10650;51.528;6.748;2023-04-24T08:38:58;2.65;;;1.70;;
20982;SDS011;10650;51.528;6.748;2023-04-24T08:41:26;1.52;;;1.42;;
20982;SDS011;10650;51.528;6.748;2023-04-24T08:43:54;1.92;;;1.70;;
20982;SDS011;10650;51.528;6.748;2023-04-24T08:46:24;1.58;;;1.38;;
20982;SDS011;10650;51.528;6.748;2023-04-24T08:48:53;1.90;;;1.60;;
20982;SDS011;10650;51.528;6.748;2023-04-24T08:51:21;2.10;;;1.80;;
20982;SDS011;10650;51.528;6.748;2023-04-24T08:53:51;1.58;;;1.48;;
20982;SDS011;10650;51.528;6.748;2023-04-24T08:56:21;2.00;;;1.73;;
20982;SDS011;10650;51.528;6.748;2023-04-24T08:58:50;1.55;;;1.45;;
20982;SDS011;10650;51.528;6.748;2023-04-24T09:01:19;2.03;;;1.80;;
20982;SDS011;10650;51.528;6.748;2023-04-24T09:03:47;1.80;;;1.70;;
20982;SDS011;10650;51.528;6.748;2023-04-24T09:06:18;2.20;;;2.00;;
20982;SDS011;10650;51.528;6.748;2023-04-24T09:11:18;4.18;;;3.58;;
20982;SDS011;10650;51.528;6.748;2023-04-24T09:13:46;5.05;;;4.55;;
20982;SDS011;10650;51.528;6.748;2023-04-24T09:16:15;7.22;;;5.20;;
20982;SDS011;10650;51.528;6.748;2023-04-24T09:18:43;6.63;;;5.63;;
20982;SDS011;10650;51.528;6.748;2023-04-24T09:21:11;7.47;;;6.60;;
20982;SDS011;10650;51.528;6.748;2023-04-24T09:23:40;8.40;;;6.82;;
20982;SDS011;10650;51.528;6.748;2023-04-24T09:26:08;8.93;;;6.85;;
20982;SDS011;10650;51.528;6.748;2023-04-24T09:28:38;11.27;;;7.20;;
20982;SDS011;10650;51.528;6.748;2023-04-24T09:31:11;7.93;;;6.70;;
20982;SDS011;10650;51.528;6.748;2023-04-24T09:36:24;10.40;;;7.40;;
20982;SDS011;10650;51.528;6.748;2023-04-24T09:38:58;8.25;;;6.78;;
20982;SDS011;10650;51.528;6.748;2023-04-24T09:41:27;7.82;;;7.05;;
20982;SDS011;10650;51.528;6.748;2023-04-24T09:43:56;10.13;;;7.95;;
20982;SDS011;10650;51.528;6.748;2023-04-24T09:46:31;8.63;;;7.20;;
20982;SDS011;10650;51.528;6.748;2023-04-24T09:49:03;9.95;;;7.82;;
20982;SDS011;10650;51.528;6.748;2023-04-24T09:51:36;9.40;;;7.80;;
20982;SDS011;10650;51.528;6.748;2023-04-24T09:54:10;9.20;;;7.90;;
20982;SDS011;10650;51.528;6.748;2023-04-24T09:56:42;11.40;;;8.18;;
20982;SDS011;10650;51.528;6.748;2023-04-24T09:59:11;9.48;;;8.18;;
20982;SDS011;10650;51.528;6.748;2023-04-24T10:01:39;12.32;;;8.02;;
20982;SDS011;10650;51.528;6.748;2023-04-24T10:04:20;9.80;;;8.00;;
20982;SDS011;10650;51.528;6.748;2023-04-24T10:06:51;10.88;;;9.40;;
20982;SDS011;10650;51.528;6.748;2023-04-24T10:09:22;10.65;;;8.55;;
20982;SDS011;10650;51.528;6.748;2023-04-24T10:11:52;10.05;;;7.72;;
20982;SDS011;10650;51.528;6.748;2023-04-24T10:14:22;9.07;;;6.30;;
20982;SDS011;10650;51.528;6.748;2023-04-24T10:16:52;10.60;;;6.60;;
20982;SDS011;10650;51.528;6.748;2023-04-24T10:19:22;11.40;;;6.05;;
20982;SDS011;10650;51.528;6.748;2023-04-24T10:21:53;9.68;;;5.85;;
20982;SDS011;10650;51.528;6.748;2023-04-24T10:24:23;11.60;;;6.22;;
20982;SDS011;10650;51.528;6.748;2023-04-24T10:26:51;15.48;;;6.20;;
20982;SDS011;10650;51.528;6.748;2023-04-24T10:29:20;10.60;;;5.57;;
20982;SDS011;10650;51.528;6.748;2023-04-24T10:31:48;14.48;;;6.30;;
20982;SDS011;10650;51.528;6.748;2023-04-24T10:34:16;12.40;;;6.35;;
20982;SDS011;10650;51.528;6.748;2023-04-24T10:36:47;10.98;;;6.32;;
20982;SDS011;10650;51.528;6.748;2023-04-24T10:39:21;13.82;;;6.38;;
20982;SDS011;10650;51.528;6.748;2023-04-24T10:44:22;12.65;;;6.30;;
20982;SDS011;10650;51.528;6.748;2023-04-24T10:46:52;13.45;;;6.30;;
20982;SDS011;10650;51.528;6.748;2023-04-24T10:49:27;16.20;;;6.82;;
20982;SDS011;10650;51.528;6.748;2023-04-24T10:52:00;15.50;;;7.15;;
20982;SDS011;10650;51.528;6.748;2023-04-24T10:54:35;14.70;;;5.88;;
20982;SDS011;10650;51.528;6.748;2023-04-24T10:57:27;11.60;;;6.25;;
20982;SDS011;10650;51.528;6.748;2023-04-24T11:00:15;13.20;;;6.20;;
20982;SDS011;10650;51.528;6.748;2023-04-24T11:02:46;15.20;;;5.85;;
20982;SDS011;10650;51.528;6.748;2023-04-24T11:05:20;14.98;;;6.15;;
20982;SDS011;10650;51.528;6.748;2023-04-24T11:10:41;14.82;;;6.40;;
20982;SDS011;10650;51.528;6.748;2023-04-24T11:13:14;12.60;;;6.47;;
20982;SDS011;10650;51.528;6.748;2023-04-24T11:15:43;10.38;;;4.88;;
20982;SDS011;10650;51.528;6.748;2023-04-24T11:18:14;8.57;;;4.32;;
20982;SDS011;10650;51.528;6.748;2023-04-24T11:20:43;12.60;;;4.80;;
20982;SDS011;10650;51.528;6.748;2023-04-24T11:23:12;9.93;;;4.38;;
20982;SDS011;10650;51.528;6.748;2023-04-24T11:25:42;8.70;;;5.00;;
20982;SDS011;10650;51.528;6.748;2023-04-24T11:28:14;11.93;;;4.82;;
20982;SDS011;10650;51.528;6.748;2023-04-24T11:30:43;11.07;;;4.97;;
20982;SDS011;10650;51.528;6.748;2023-04-24T11:33:11;11.43;;;4.65;;
20982;SDS011;10650;51.528;6.748;2023-04-24T11:35:46;10.82;;;4.53;;
20982;SDS011;10650;51.528;6.748;2023-04-24T11:38:15;7.85;;;4.05;;
20982;SDS011;10650;51.528;6.748;2023-04-24T11:40:51;12.98;;;4.53;;
20982;SDS011;10650;51.528;6.748;2023-04-24T11:43:19;9.90;;;3.80;;
20982;SDS011;10650;51.528;6.748;2023-04-24T11:45:48;14.27;;;5.22;;
20982;SDS011;10650;51.528;6.748;2023-04-24T11:48:18;13.40;;;6.35;;
20982;SDS011;10650;51.528;6.748;2023-04-24T11:50:49;8.23;;;4.20;;
20982;SDS011;10650;51.528;6.748;2023-04-24T11:53:19;8.80;;;4.30;;
20982;SDS011;10650;51.528;6.748;2023-04-24T11:55:47;8.05;;;4.50;;
20982;SDS011;10650;51.528;6.748;2023-04-24T11:58:17;8.18;;;4.10;;
20982;SDS011;10650;51.528;6.748;2023-04-24T12:00:55;7.28;;;3.30;;
20982;SDS011;10650;51.528;6.748;2023-04-24T12:03:24;10.63;;;5.57;;
20982;SDS011;10650;51.528;6.748;2023-04-24T12:05:52;7.25;;;3.30;;
20982;SDS011;10650;51.528;6.748;2023-04-24T12:08:31;8.98;;;5.38;;
20982;SDS011;10650;51.528;6.748;2023-04-24T12:11:03;7.85;;;4.30;;
20982;SDS011;10650;51.528;6.748;2023-04-24T12:13:34;7.15;;;3.80;;
20982;SDS011;10650;51.528;6.748;2023-04-24T12:16:03;7.38;;;3.28;;
20982;SDS011;10650;51.528;6.748;2023-04-24T12:18:32;6.88;;;3.90;;
20982;SDS011;10650;51.528;6.748;2023-04-24T12:21:18;7.55;;;4.00;;
20982;SDS011;10650;51.528;6.748;2023-04-24T12:23:48;5.53;;;3.25;;
20982;SDS011;10650;51.528;6.748;2023-04-24T12:26:17;6.32;;;3.50;;
20982;SDS011;10650;51.528;6.748;2023-04-24T12:28:48;5.22;;;3.13;;
20982;SDS011;10650;51.528;6.748;2023-04-24T12:31:16;6.22;;;2.65;;
20982;SDS011;10650;51.528;6.748;2023-04-24T12:33:44;4.82;;;2.70;;
20982;SDS011;10650;51.528;6.748;2023-04-24T12:36:12;4.72;;;2.45;;
20982;SDS011;10650;51.528;6.748;2023-04-24T12:38:43;6.32;;;4.72;;
20982;SDS011;10650;51.528;6.748;2023-04-24T12:41:13;4.55;;;3.20;;
20982;SDS011;10650;51.528;6.748;2023-04-24T12:43:52;4.50;;;3.00;;
20982;SDS011;10650;51.528;6.748;2023-04-24T12:46:21;4.78;;;3.10;;
20982;SDS011;10650;51.528;6.748;2023-04-24T12:48:49;3.78;;;2.13;;
20982;SDS011;10650;51.528;6.748;2023-04-24T12:51:17;5.47;;;2.55;;
20982;SDS011;10650;51.528;6.748;2023-04-24T12:53:45;4.53;;;2.70;;
20982;SDS011;10650;51.528;6.748;2023-04-24T12:56:13;4.05;;;3.08;;
20982;SDS011;10650;51.528;6.748;2023-04-24T12:58:41;3.65;;;3.10;;
20982;SDS011;10650;51.528;6.748;2023-04-24T13:01:10;4.68;;;3.47;;
20982;SDS011;10650;51.528;6.748;2023-04-24T13:03:37;5.03;;;3.10;;
20982;SDS011;10650;51.528;6.748;2023-04-24T13:06:06;4.13;;;3.28;;
20982;SDS011;10650;51.528;6.748;2023-04-24T13:08:34;6.45;;;3.78;;
20982;SDS011;10650;51.528;6.748;2023-04-24T13:11:02;4.88;;;3.00;;
20982;SDS011;10650;51.528;6.748;2023-04-24T13:13:30;3.63;;;2.13;;
20982;SDS011;10650;51.528;6.748;2023-04-24T13:15:58;4.93;;;2.10;;
20982;SDS011;10650;51.528;6.748;2023-04-24T13:18:28;3.45;;;2.00;;
20982;SDS011;10650;51.528;6.748;2023-04-24T13:20:55;3.97;;;2.25;;
20982;SDS011;10650;51.528;6.748;2023-04-24T13:23:23;3.67;;;2.50;;
20982;SDS011;10650;51.528;6.748;2023-04-24T13:25:51;4.40;;;2.50;;
20982;SDS011;10650;51.528;6.748;2023-04-24T13:28:23;4.28;;;2.58;;
20982;SDS011;10650;51.528;6.748;2023-04-24T13:30:51;6.40;;;3.35;;
20982;SDS011;10650;51.528;6.748;2023-04-24T13:33:19;5.55;;;2.90;;
20982;SDS011;10650;51.528;6.748;2023-04-24T13:35:49;5.38;;;3.00;;
20982;SDS011;10650;51.528;6.748;2023-04-24T13:38:17;5.18;;;2.60;;
20982;SDS011;10650;51.528;6.748;2023-04-24T13:40:47;3.97;;;2.28;;
20982;SDS011;10650;51.528;6.748;2023-04-24T13:43:16;3.58;;;2.10;;
20982;SDS011;10650;51.528;6.748;2023-04-24T13:45:43;6.28;;;2.28;;
20982;SDS011;10650;51.528;6.748;2023-04-24T13:48:11;8.15;;;3.30;;
20982;SDS011;10650;51.528;6.748;2023-04-24T13:50:41;7.45;;;2.63;;
20982;SDS011;10650;51.528;6.748;2023-04-24T13:53:15;4.53;;;2.22;;
20982;SDS011;10650;51.528;6.748;2023-04-24T13:55:43;3.78;;;1.98;;
20982;SDS011;10650;51.528;6.748;2023-04-24T13:58:11;4.78;;;2.10;;
20982;SDS011;10650;51.528;6.748;2023-04-24T14:00:39;4.95;;;2.20;;
20982;SDS011;10650;51.528;6.748;2023-04-24T14:03:07;5.07;;;2.58;;
20982;SDS011;10650;51.528;6.748;2023-04-24T14:05:35;3.80;;;2.30;;
20982;SDS011;10650;51.528;6.748;2023-04-24T14:08:04;4.85;;;2.30;;
20982;SDS011;10650;51.528;6.748;2023-04-24T14:10:33;3.95;;;2.50;;
20982;SDS011;10650;51.528;6.748;2023-04-24T14:13:01;5.03;;;2.70;;
20982;SDS011;10650;51.528;6.748;2023-04-24T14:15:29;5.90;;;2.60;;
20982;SDS011;10650;51.528;6.748;2023-04-24T14:17:57;5.75;;;3.08;;
20982;SDS011;10650;51.528;6.748;2023-04-24T14:20:25;5.57;;;2.85;;
20982;SDS011;10650;51.528;6.748;2023-04-24T14:22:52;4.65;;;2.85;;
20982;SDS011;10650;51.528;6.748;2023-04-24T14:25:20;5.72;;;2.85;;
20982;SDS011;10650;51.528;6.748;2023-04-24T14:27:50;6.57;;;2.83;;
20982;SDS011;10650;51.528;6.748;2023-04-24T14:30:18;4.53;;;2.90;;
20982;SDS011;10650;51.528;6.748;2023-04-24T14:32:47;3.85;;;2.75;;
20982;SDS011;10650;51.528;6.748;2023-04-24T14:35:15;8.48;;;3.20;;
20982;SDS011;10650;51.528;6.748;2023-04-24T14:37:43;4.88;;;3.30;;
20982;SDS011;10650;51.528;6.748;2023-04-24T14:40:11;3.15;;;2.40;;
20982;SDS011;10650;51.528;6.748;2023-04-24T14:43:00;4.00;;;2.50;;
20982;SDS011;10650;51.528;6.748;2023-04-24T14:45:28;4.18;;;2.58;;
20982;SDS011;10650;51.528;6.748;2023-04-24T14:47:57;4.25;;;1.70;;
20982;SDS011;10650;51.528;6.748;2023-04-24T14:50:25;3.33;;;2.05;;
20982;SDS011;10650;51.528;6.748;2023-04-24T14:52:54;2.95;;;1.70;;
20982;SDS011;10650;51.528;6.748;2023-04-24T14:55:23;2.03;;;1.83;;
20982;SDS011;10650;51.528;6.748;2023-04-24T14:57:52;2.22;;;1.58;;
20982;SDS011;10650;51.528;6.748;2023-04-24T15:00:21;2.05;;;1.45;;